sensor_id;sensor_type;location;lat;lon;timestamp;temperature;humidity
7694;DHT22;3889;48.162;11.510;2022-07-23T00:00:33;23.10;99.90
7694;DHT22;3889;48.162;11.510;2022-07-23T00:03:06;23.10;99.90
7694;DHT22;3889;48.162;11.510;2022-07-23T00:05:34;23.00;99.90
7694;DHT22;3889;48.162;11.510;2022-07-23T00:08:04;22.90;99.90
7694;DHT22;3889;48.162;11.510;2022-07-23T00:10:40;23.00;99.90
7694;DHT22;3889;48.162;11.510;2022-07-23T00:13:08;23.10;99.90
7694;DHT22;3889;48.162;11.510;2022-07-23T00:15:36;23.20;99.90
7694;DHT22;3889;48.162;11.510;2022-07-23T00:18:05;23.20;99.90
7694;DHT22;3889;48.162;11.510;2022-07-23T00:20:33;23.20;99.90
7694;DHT22;3889;48.162;11.510;2022-07-23T00:23:01;23.10;99.90
7694;DHT22;3889;48.162;11.510;2022-07-23T00:25:29;23.00;99.90
7694;DHT22;3889;48.162;11.510;2022-07-23T00:27:58;22.90;99.90
7694;DHT22;3889;48.162;11.510;2022-07-23T00:30:26;22.90;99.90
7694;DHT22;3889;48.162;11.510;2022-07-23T00:32:57;22.90;99.90
7694;DHT22;3889;48.162;11.510;2022-07-23T00:35:29;23.00;99.90
7694;DHT22;3889;48.162;11.510;2022-07-23T00:37:58;23.00;99.90
7694;DHT22;3889;48.162;11.510;2022-07-23T00:40:27;23.00;99.90
7694;DHT22;3889;48.162;11.510;2022-07-23T00:42:55;23.00;99.90
7694;DHT22;3889;48.162;11.510;2022-07-23T00:45:23;23.00;99.90
7694;DHT22;3889;48.162;11.510;2022-07-23T00:47:51;23.00;99.90
7694;DHT22;3889;48.162;11.510;2022-07-23T00:50:19;23.00;99.90
7694;DHT22;3889;48.162;11.510;2022-07-23T00:52:48;23.00;99.90
7694;DHT22;3889;48.162;11.510;2022-07-23T00:55:16;23.10;99.90
7694;DHT22;3889;48.162;11.510;2022-07-23T00:57:44;23.00;99.90
7694;DHT22;3889;48.162;11.510;2022-07-23T01:00:14;23.10;99.90
7694;DHT22;3889;48.162;11.510;2022-07-23T01:02:42;23.10;99.90
7694;DHT22;3889;48.162;11.510;2022-07-23T01:05:13;23.00;99.90
7694;DHT22;3889;48.162;11.510;2022-07-23T01:07:41;23.00;99.90
7694;DHT22;3889;48.162;11.510;2022-07-23T01:10:11;23.00;99.90
7694;DHT22;3889;48.162;11.510;2022-07-23T01:12:53;23.10;99.90
7694;DHT22;3889;48.162;11.510;2022-07-23T01:15:21;23.20;99.90
7694;DHT22;3889;48.162;11.510;2022-07-23T01:17:49;23.20;99.90
7694;DHT22;3889;48.162;11.510;2022-07-23T01:20:18;23.20;99.90
7694;DHT22;3889;48.162;11.510;2022-07-23T01:22:47;23.20;99.90
7694;DHT22;3889;48.162;11.510;2022-07-23T01:25:15;23.20;99.90
7694;DHT22;3889;48.162;11.510;2022-07-23T01:27:43;23.20;99.90
7694;DHT22;3889;48.162;11.510;2022-07-23T01:30:13;23.00;99.90
7694;DHT22;3889;48.162;11.510;2022-07-23T01:32:41;22.40;99.90
7694;DHT22;3889;48.162;11.510;2022-07-23T01:35:09;21.80;99.90
7694;DHT22;3889;48.162;11.510;2022-07-23T01:37:38;21.30;99.90
7694;DHT22;3889;48.162;11.510;2022-07-23T01:40:07;21.30;99.90
7694;DHT22;3889;48.162;11.510;2022-07-23T01:42:36;21.10;99.90
7694;DHT22;3889;48.162;11.510;2022-07-23T01:45:05;21.00;99.90
7694;DHT22;3889;48.162;11.510;2022-07-23T01:47:33;20.70;99.90
7694;DHT22;3889;48.162;11.510;2022-07-23T01:50:01;20.30;99.90
7694;DHT22;3889;48.162;11.510;2022-07-23T01:52:29;19.80;99.90
7694;DHT22;3889;48.162;11.510;2022-07-23T01:54:57;19.60;99.90
7694;DHT22;3889;48.162;11.510;2022-07-23T01:57:26;19.30;99.90
7694;DHT22;3889;48.162;11.510;2022-07-23T01:59:54;19.30;99.90
7694;DHT22;3889;48.162;11.510;2022-07-23T02:02:22;19.20;99.90
7694;DHT22;3889;48.162;11.510;2022-07-23T02:04:50;19.10;99.90
7694;DHT22;3889;48.162;11.510;2022-07-23T02:07:18;18.90;99.90
7694;DHT22;3889;48.162;11.510;2022-07-23T02:09:46;18.70;99.90
7694;DHT22;3889;48.162;11.510;2022-07-23T02:12:14;19.10;99.90
7694;DHT22;3889;48.162;11.510;2022-07-23T02:14:43;19.00;99.90
7694;DHT22;3889;48.162;11.510;2022-07-23T02:17:11;19.00;99.90
7694;DHT22;3889;48.162;11.510;2022-07-23T02:19:39;18.90;99.90
7694;DHT22;3889;48.162;11.510;2022-07-23T02:22:07;18.90;99.90
7694;DHT22;3889;48.162;11.510;2022-07-23T02:24:35;18.90;99.90
7694;DHT22;3889;48.162;11.510;2022-07-23T02:27:03;18.90;99.90
7694;DHT22;3889;48.162;11.510;2022-07-23T02:29:31;18.80;99.90
7694;DHT22;3889;48.162;11.510;2022-07-23T02:32:00;18.70;99.90
7694;DHT22;3889;48.162;11.510;2022-07-23T02:34:28;18.70;99.90
7694;DHT22;3889;48.162;11.510;2022-07-23T02:36:55;18.60;99.90
7694;DHT22;3889;48.162;11.510;2022-07-23T02:39:23;18.60;99.90
7694;DHT22;3889;48.162;11.510;2022-07-23T02:41:51;18.60;99.90
7694;DHT22;3889;48.162;11.510;2022-07-23T02:44:19;18.60;99.90
7694;DHT22;3889;48.162;11.510;2022-07-23T02:46:47;18.80;99.90
7694;DHT22;3889;48.162;11.510;2022-07-23T02:49:16;18.90;99.90
7694;DHT22;3889;48.162;11.510;2022-07-23T02:51:44;18.90;99.90
7694;DHT22;3889;48.162;11.510;2022-07-23T02:54:12;18.80;99.90
7694;DHT22;3889;48.162;11.510;2022-07-23T02:56:40;18.90;99.90
7694;DHT22;3889;48.162;11.510;2022-07-23T02:59:08;19.00;99.90
7694;DHT22;3889;48.162;11.510;2022-07-23T03:01:36;19.00;99.90
7694;DHT22;3889;48.162;11.510;2022-07-23T03:04:04;19.10;99.90
7694;DHT22;3889;48.162;11.510;2022-07-23T03:06:33;19.20;99.90
7694;DHT22;3889;48.162;11.510;2022-07-23T03:09:01;19.10;99.90
7694;DHT22;3889;48.162;11.510;2022-07-23T03:11:30;19.10;99.90
7694;DHT22;3889;48.162;11.510;2022-07-23T03:13:58;19.10;99.90
7694;DHT22;3889;48.162;11.510;2022-07-23T03:16:26;19.00;99.90
7694;DHT22;3889;48.162;11.510;2022-07-23T03:18:54;19.10;99.90
7694;DHT22;3889;48.162;11.510;2022-07-23T03:21:22;19.20;99.90
7694;DHT22;3889;48.162;11.510;2022-07-23T03:23:51;19.10;99.90
7694;DHT22;3889;48.162;11.510;2022-07-23T03:26:19;19.10;99.90
7694;DHT22;3889;48.162;11.510;2022-07-23T03:28:47;19.10;99.90
7694;DHT22;3889;48.162;11.510;2022-07-23T03:31:15;19.20;99.90
7694;DHT22;3889;48.162;11.510;2022-07-23T03:33:43;19.10;99.90
7694;DHT22;3889;48.162;11.510;2022-07-23T03:36:11;19.20;99.90
7694;DHT22;3889;48.162;11.510;2022-07-23T03:38:39;19.20;99.90
7694;DHT22;3889;48.162;11.510;2022-07-23T03:41:09;19.30;99.90
7694;DHT22;3889;48.162;11.510;2022-07-23T03:43:37;19.20;99.90
7694;DHT22;3889;48.162;11.510;2022-07-23T03:46:05;19.10;99.90
7694;DHT22;3889;48.162;11.510;2022-07-23T03:48:33;18.90;99.90
7694;DHT22;3889;48.162;11.510;2022-07-23T03:51:01;19.00;99.90
7694;DHT22;3889;48.162;11.510;2022-07-23T03:53:30;18.90;99.90
7694;DHT22;3889;48.162;11.510;2022-07-23T03:55:58;19.00;99.90
7694;DHT22;3889;48.162;11.510;2022-07-23T03:58:28;19.10;99.90
7694;DHT22;3889;48.162;11.510;2022-07-23T04:00:55;19.10;99.90
7694;DHT22;3889;48.162;11.510;2022-07-23T04:03:23;19.10;99.90
7694;DHT22;3889;48.162;11.510;2022-07-23T04:05:51;19.30;99.90
7694;DHT22;3889;48.162;11.510;2022-07-23T04:08:19;19.20;99.90
7694;DHT22;3889;48.162;11.510;2022-07-23T04:10:47;19.10;99.90
7694;DHT22;3889;48.162;11.510;2022-07-23T04:13:15;19.00;99.90
7694;DHT22;3889;48.162;11.510;2022-07-23T04:15:44;19.00;99.90
7694;DHT22;3889;48.162;11.510;2022-07-23T04:18:12;19.10;99.90
7694;DHT22;3889;48.162;11.510;2022-07-23T04:20:41;19.10;99.90
7694;DHT22;3889;48.162;11.510;2022-07-23T04:23:08;19.10;99.90
7694;DHT22;3889;48.162;11.510;2022-07-23T04:25:37;19.20;99.90
7694;DHT22;3889;48.162;11.510;2022-07-23T04:28:05;19.30;99.90
7694;DHT22;3889;48.162;11.510;2022-07-23T04:30:32;19.30;99.90
7694;DHT22;3889;48.162;11.510;2022-07-23T04:33:02;19.20;99.90
7694;DHT22;3889;48.162;11.510;2022-07-23T04:35:32;19.20;99.90
7694;DHT22;3889;48.162;11.510;2022-07-23T04:38:00;19.20;99.90
7694;DHT22;3889;48.162;11.510;2022-07-23T04:40:28;19.20;99.90
7694;DHT22;3889;48.162;11.510;2022-07-23T04:42:56;19.20;99.90
7694;DHT22;3889;48.162;11.510;2022-07-23T04:45:24;19.20;99.90
7694;DHT22;3889;48.162;11.510;2022-07-23T04:47:55;19.30;99.90
7694;DHT22;3889;48.162;11.510;2022-07-23T04:50:25;19.30;99.90
7694;DHT22;3889;48.162;11.510;2022-07-23T04:52:53;19.40;99.90
7694;DHT22;3889;48.162;11.510;2022-07-23T04:55:21;19.20;99.90
7694;DHT22;3889;48.162;11.510;2022-07-23T04:57:49;19.30;99.90
7694;DHT22;3889;48.162;11.510;2022-07-23T05:00:17;19.30;99.90
7694;DHT22;3889;48.162;11.510;2022-07-23T05:02:44;19.30;99.90
7694;DHT22;3889;48.162;11.510;2022-07-23T05:05:12;19.30;99.90
7694;DHT22;3889;48.162;11.510;2022-07-23T05:07:41;19.30;99.90
7694;DHT22;3889;48.162;11.510;2022-07-23T05:10:09;19.40;99.90
7694;DHT22;3889;48.162;11.510;2022-07-23T05:12:37;19.40;99.90
7694;DHT22;3889;48.162;11.510;2022-07-23T05:15:06;19.40;99.90
7694;DHT22;3889;48.162;11.510;2022-07-23T05:17:34;19.30;99.90
7694;DHT22;3889;48.162;11.510;2022-07-23T05:20:02;19.40;99.90
7694;DHT22;3889;48.162;11.510;2022-07-23T05:22:30;19.40;99.90
7694;DHT22;3889;48.162;11.510;2022-07-23T05:24:59;19.50;99.90
7694;DHT22;3889;48.162;11.510;2022-07-23T05:27:27;19.40;99.90
7694;DHT22;3889;48.162;11.510;2022-07-23T05:29:55;19.40;99.90
7694;DHT22;3889;48.162;11.510;2022-07-23T05:32:24;19.30;99.90
7694;DHT22;3889;48.162;11.510;2022-07-23T05:34:51;19.30;99.90
7694;DHT22;3889;48.162;11.510;2022-07-23T05:37:19;19.30;99.90
7694;DHT22;3889;48.162;11.510;2022-07-23T05:39:47;19.30;99.90
7694;DHT22;3889;48.162;11.510;2022-07-23T05:42:16;19.40;99.90
7694;DHT22;3889;48.162;11.510;2022-07-23T05:44:44;19.40;99.90
7694;DHT22;3889;48.162;11.510;2022-07-23T05:47:13;19.30;99.90
7694;DHT22;3889;48.162;11.510;2022-07-23T05:49:41;19.30;99.90
7694;DHT22;3889;48.162;11.510;2022-07-23T05:52:09;19.30;99.90
7694;DHT22;3889;48.162;11.510;2022-07-23T05:54:37;19.20;99.90
7694;DHT22;3889;48.162;11.510;2022-07-23T05:57:05;19.20;99.90
7694;DHT22;3889;48.162;11.510;2022-07-23T05:59:34;19.30;99.90
7694;DHT22;3889;48.162;11.510;2022-07-23T06:02:02;19.40;99.90
7694;DHT22;3889;48.162;11.510;2022-07-23T06:04:30;19.30;99.90
7694;DHT22;3889;48.162;11.510;2022-07-23T06:06:58;19.40;99.90
7694;DHT22;3889;48.162;11.510;2022-07-23T06:09:25;19.40;99.90
7694;DHT22;3889;48.162;11.510;2022-07-23T06:11:53;19.50;99.90
7694;DHT22;3889;48.162;11.510;2022-07-23T06:14:21;19.50;99.90
7694;DHT22;3889;48.162;11.510;2022-07-23T06:16:50;19.50;99.90
7694;DHT22;3889;48.162;11.510;2022-07-23T06:19:18;19.50;99.90
7694;DHT22;3889;48.162;11.510;2022-07-23T06:21:46;19.50;99.90
7694;DHT22;3889;48.162;11.510;2022-07-23T06:24:14;19.60;99.90
7694;DHT22;3889;48.162;11.510;2022-07-23T06:26:42;19.70;99.90
7694;DHT22;3889;48.162;11.510;2022-07-23T06:29:10;19.70;99.90
7694;DHT22;3889;48.162;11.510;2022-07-23T06:31:38;19.80;99.90
7694;DHT22;3889;48.162;11.510;2022-07-23T06:34:07;19.70;99.90
7694;DHT22;3889;48.162;11.510;2022-07-23T06:36:35;19.70;99.90
7694;DHT22;3889;48.162;11.510;2022-07-23T06:39:04;19.80;99.90
7694;DHT22;3889;48.162;11.510;2022-07-23T06:41:34;19.80;99.90
7694;DHT22;3889;48.162;11.510;2022-07-23T06:44:03;19.90;99.90
7694;DHT22;3889;48.162;11.510;2022-07-23T06:46:30;19.70;99.90
7694;DHT22;3889;48.162;11.510;2022-07-23T06:48:58;19.80;99.90
7694;DHT22;3889;48.162;11.510;2022-07-23T06:51:28;19.80;99.90
7694;DHT22;3889;48.162;11.510;2022-07-23T06:53:56;19.70;99.90
7694;DHT22;3889;48.162;11.510;2022-07-23T06:56:25;19.70;99.90
7694;DHT22;3889;48.162;11.510;2022-07-23T06:58:52;19.90;99.90
7694;DHT22;3889;48.162;11.510;2022-07-23T07:01:20;19.80;99.90
7694;DHT22;3889;48.162;11.510;2022-07-23T07:03:49;19.90;99.90
7694;DHT22;3889;48.162;11.510;2022-07-23T07:06:17;19.90;99.90
7694;DHT22;3889;48.162;11.510;2022-07-23T07:08:47;19.90;99.90
7694;DHT22;3889;48.162;11.510;2022-07-23T07:11:15;20.00;99.90
7694;DHT22;3889;48.162;11.510;2022-07-23T07:13:42;20.10;99.90
7694;DHT22;3889;48.162;11.510;2022-07-23T07:16:10;20.10;99.90
7694;DHT22;3889;48.162;11.510;2022-07-23T07:18:38;20.10;99.90
7694;DHT22;3889;48.162;11.510;2022-07-23T07:21:06;20.10;99.90
7694;DHT22;3889;48.162;11.510;2022-07-23T07:23:34;20.00;99.90
7694;DHT22;3889;48.162;11.510;2022-07-23T07:26:03;20.10;99.90
7694;DHT22;3889;48.162;11.510;2022-07-23T07:28:31;20.10;99.90
7694;DHT22;3889;48.162;11.510;2022-07-23T07:30:59;20.10;99.90
7694;DHT22;3889;48.162;11.510;2022-07-23T07:33:29;20.10;99.90
7694;DHT22;3889;48.162;11.510;2022-07-23T07:35:57;20.10;99.90
7694;DHT22;3889;48.162;11.510;2022-07-23T07:38:25;20.20;99.90
7694;DHT22;3889;48.162;11.510;2022-07-23T07:40:52;20.20;99.90
7694;DHT22;3889;48.162;11.510;2022-07-23T07:43:22;20.20;99.90
7694;DHT22;3889;48.162;11.510;2022-07-23T07:45:50;20.10;99.90
7694;DHT22;3889;48.162;11.510;2022-07-23T07:48:18;20.10;99.90
7694;DHT22;3889;48.162;11.510;2022-07-23T07:50:46;20.20;99.90
7694;DHT22;3889;48.162;11.510;2022-07-23T07:53:15;20.20;99.90
7694;DHT22;3889;48.162;11.510;2022-07-23T07:55:43;20.20;99.90
7694;DHT22;3889;48.162;11.510;2022-07-23T07:58:17;20.30;99.90
7694;DHT22;3889;48.162;11.510;2022-07-23T08:00:46;20.30;99.90
7694;DHT22;3889;48.162;11.510;2022-07-23T08:03:15;20.30;99.90
7694;DHT22;3889;48.162;11.510;2022-07-23T08:05:44;20.30;99.90
7694;DHT22;3889;48.162;11.510;2022-07-23T08:08:12;20.30;99.90
7694;DHT22;3889;48.162;11.510;2022-07-23T08:10:42;20.30;99.90
7694;DHT22;3889;48.162;11.510;2022-07-23T08:13:12;20.20;99.90
7694;DHT22;3889;48.162;11.510;2022-07-23T08:15:42;20.20;99.90
7694;DHT22;3889;48.162;11.510;2022-07-23T08:18:14;20.20;99.90
7694;DHT22;3889;48.162;11.510;2022-07-23T08:20:41;20.20;99.90
7694;DHT22;3889;48.162;11.510;2022-07-23T08:23:10;20.30;99.90
7694;DHT22;3889;48.162;11.510;2022-07-23T08:25:39;20.40;99.90
7694;DHT22;3889;48.162;11.510;2022-07-23T08:28:09;20.50;99.90
7694;DHT22;3889;48.162;11.510;2022-07-23T08:30:38;20.60;99.90
7694;DHT22;3889;48.162;11.510;2022-07-23T08:33:07;20.80;99.90
7694;DHT22;3889;48.162;11.510;2022-07-23T08:35:58;20.70;99.90
7694;DHT22;3889;48.162;11.510;2022-07-23T08:38:26;21.00;99.90
7694;DHT22;3889;48.162;11.510;2022-07-23T08:40:56;21.00;99.90
7694;DHT22;3889;48.162;11.510;2022-07-23T08:43:26;21.20;99.90
7694;DHT22;3889;48.162;11.510;2022-07-23T08:45:55;21.30;99.90
7694;DHT22;3889;48.162;11.510;2022-07-23T08:48:25;21.50;99.90
7694;DHT22;3889;48.162;11.510;2022-07-23T08:50:55;21.60;99.90
7694;DHT22;3889;48.162;11.510;2022-07-23T08:53:26;21.60;99.90
7694;DHT22;3889;48.162;11.510;2022-07-23T08:55:56;21.70;99.90
7694;DHT22;3889;48.162;11.510;2022-07-23T08:58:25;21.70;99.90
7694;DHT22;3889;48.162;11.510;2022-07-23T09:00:54;21.80;99.90
7694;DHT22;3889;48.162;11.510;2022-07-23T09:03:25;21.90;99.90
7694;DHT22;3889;48.162;11.510;2022-07-23T09:05:54;21.90;99.90
7694;DHT22;3889;48.162;11.510;2022-07-23T09:08:26;22.00;99.90
7694;DHT22;3889;48.162;11.510;2022-07-23T09:11:02;22.10;99.90
7694;DHT22;3889;48.162;11.510;2022-07-23T09:13:33;22.10;99.90
7694;DHT22;3889;48.162;11.510;2022-07-23T09:16:04;22.10;99.90
7694;DHT22;3889;48.162;11.510;2022-07-23T09:18:35;22.00;99.90
7694;DHT22;3889;48.162;11.510;2022-07-23T09:21:07;22.10;99.90
7694;DHT22;3889;48.162;11.510;2022-07-23T09:23:41;22.20;99.90
7694;DHT22;3889;48.162;11.510;2022-07-23T09:26:24;22.50;99.90
7694;DHT22;3889;48.162;11.510;2022-07-23T09:28:57;22.80;99.90
7694;DHT22;3889;48.162;11.510;2022-07-23T09:31:32;23.10;99.90
7694;DHT22;3889;48.162;11.510;2022-07-23T09:34:12;23.20;99.90
7694;DHT22;3889;48.162;11.510;2022-07-23T09:36:40;23.50;99.90
7694;DHT22;3889;48.162;11.510;2022-07-23T09:39:11;23.90;99.90
7694;DHT22;3889;48.162;11.510;2022-07-23T09:41:41;24.10;99.90
7694;DHT22;3889;48.162;11.510;2022-07-23T09:44:15;24.20;99.90
7694;DHT22;3889;48.162;11.510;2022-07-23T09:46:45;24.50;99.90
7694;DHT22;3889;48.162;11.510;2022-07-23T09:49:19;24.80;99.90
7694;DHT22;3889;48.162;11.510;2022-07-23T09:51:53;25.10;99.90
7694;DHT22;3889;48.162;11.510;2022-07-23T09:54:34;25.20;99.90
7694;DHT22;3889;48.162;11.510;2022-07-23T09:57:05;25.50;99.90
7694;DHT22;3889;48.162;11.510;2022-07-23T09:59:36;25.80;99.90
7694;DHT22;3889;48.162;11.510;2022-07-23T10:02:06;25.90;99.90
7694;DHT22;3889;48.162;11.510;2022-07-23T10:04:35;25.70;99.90
7694;DHT22;3889;48.162;11.510;2022-07-23T10:07:06;25.50;99.90
7694;DHT22;3889;48.162;11.510;2022-07-23T10:09:37;25.20;99.90
7694;DHT22;3889;48.162;11.510;2022-07-23T10:12:10;25.00;99.90
7694;DHT22;3889;48.162;11.510;2022-07-23T10:14:49;24.80;99.90
7694;DHT22;3889;48.162;11.510;2022-07-23T10:17:17;24.80;99.90
7694;DHT22;3889;48.162;11.510;2022-07-23T10:19:45;24.80;99.90
7694;DHT22;3889;48.162;11.510;2022-07-23T10:22:18;24.90;99.90
7694;DHT22;3889;48.162;11.510;2022-07-23T10:24:52;25.30;99.90
7694;DHT22;3889;48.162;11.510;2022-07-23T10:27:37;25.80;99.90
7694;DHT22;3889;48.162;11.510;2022-07-23T10:30:11;26.20;99.90
7694;DHT22;3889;48.162;11.510;2022-07-23T10:32:45;26.60;99.90
7694;DHT22;3889;48.162;11.510;2022-07-23T10:35:21;26.70;99.90
7694;DHT22;3889;48.162;11.510;2022-07-23T10:37:52;26.80;99.90
7694;DHT22;3889;48.162;11.510;2022-07-23T10:40:23;27.00;99.90
7694;DHT22;3889;48.162;11.510;2022-07-23T10:42:52;26.80;99.90
7694;DHT22;3889;48.162;11.510;2022-07-23T10:45:24;26.60;99.90
7694;DHT22;3889;48.162;11.510;2022-07-23T10:47:53;26.60;99.90
7694;DHT22;3889;48.162;11.510;2022-07-23T10:50:23;26.50;99.90
7694;DHT22;3889;48.162;11.510;2022-07-23T10:53:11;26.50;99.90
7694;DHT22;3889;48.162;11.510;2022-07-23T10:55:47;26.40;99.90
7694;DHT22;3889;48.162;11.510;2022-07-23T10:58:20;26.30;99.90
7694;DHT22;3889;48.162;11.510;2022-07-23T11:00:49;26.30;99.90
7694;DHT22;3889;48.162;11.510;2022-07-23T11:03:34;26.50;99.90
7694;DHT22;3889;48.162;11.510;2022-07-23T11:06:05;26.50;99.90
7694;DHT22;3889;48.162;11.510;2022-07-23T11:08:33;26.50;99.90
7694;DHT22;3889;48.162;11.510;2022-07-23T11:11:10;26.40;99.90
7694;DHT22;3889;48.162;11.510;2022-07-23T11:13:49;26.30;99.90
7694;DHT22;3889;48.162;11.510;2022-07-23T11:16:24;26.20;99.90
7694;DHT22;3889;48.162;11.510;2022-07-23T11:19:06;26.20;99.90
7694;DHT22;3889;48.162;11.510;2022-07-23T11:21:45;26.20;99.90
7694;DHT22;3889;48.162;11.510;2022-07-23T11:24:15;26.20;99.90
7694;DHT22;3889;48.162;11.510;2022-07-23T11:26:48;26.00;99.90
7694;DHT22;3889;48.162;11.510;2022-07-23T11:29:38;25.90;99.90
7694;DHT22;3889;48.162;11.510;2022-07-23T11:32:25;25.80;99.90
7694;DHT22;3889;48.162;11.510;2022-07-23T11:34:55;25.50;99.90
7694;DHT22;3889;48.162;11.510;2022-07-23T11:37:38;25.50;99.90
7694;DHT22;3889;48.162;11.510;2022-07-23T11:40:08;25.50;99.90
7694;DHT22;3889;48.162;11.510;2022-07-23T11:42:39;25.30;99.90
7694;DHT22;3889;48.162;11.510;2022-07-23T11:45:09;25.20;99.90
7694;DHT22;3889;48.162;11.510;2022-07-23T11:47:36;25.20;99.90
7694;DHT22;3889;48.162;11.510;2022-07-23T11:50:06;25.20;99.90
7694;DHT22;3889;48.162;11.510;2022-07-23T11:52:34;25.40;99.90
7694;DHT22;3889;48.162;11.510;2022-07-23T11:55:04;25.20;99.90
7694;DHT22;3889;48.162;11.510;2022-07-23T11:57:34;25.20;99.90
7694;DHT22;3889;48.162;11.510;2022-07-23T12:00:07;25.20;99.90
7694;DHT22;3889;48.162;11.510;2022-07-23T12:02:38;25.10;99.90
7694;DHT22;3889;48.162;11.510;2022-07-23T12:05:07;25.10;99.90
7694;DHT22;3889;48.162;11.510;2022-07-23T12:07:38;25.10;99.90
7694;DHT22;3889;48.162;11.510;2022-07-23T12:10:11;25.00;99.90
7694;DHT22;3889;48.162;11.510;2022-07-23T12:12:41;24.90;99.90
7694;DHT22;3889;48.162;11.510;2022-07-23T12:15:11;24.80;99.90
7694;DHT22;3889;48.162;11.510;2022-07-23T12:17:42;25.00;99.90
7694;DHT22;3889;48.162;11.510;2022-07-23T12:20:18;25.10;99.90
7694;DHT22;3889;48.162;11.510;2022-07-23T12:22:48;25.10;99.90
7694;DHT22;3889;48.162;11.510;2022-07-23T12:25:18;25.00;99.90
7694;DHT22;3889;48.162;11.510;2022-07-23T12:27:58;25.00;99.90
7694;DHT22;3889;48.162;11.510;2022-07-23T12:30:30;24.90;99.90
7694;DHT22;3889;48.162;11.510;2022-07-23T12:33:01;24.80;99.90
7694;DHT22;3889;48.162;11.510;2022-07-23T12:35:32;24.80;99.90
7694;DHT22;3889;48.162;11.510;2022-07-23T12:38:02;24.80;99.90
7694;DHT22;3889;48.162;11.510;2022-07-23T12:40:32;24.80;99.90
7694;DHT22;3889;48.162;11.510;2022-07-23T12:43:02;24.70;99.90
7694;DHT22;3889;48.162;11.510;2022-07-23T12:45:46;24.60;99.90
7694;DHT22;3889;48.162;11.510;2022-07-23T12:48:23;24.60;99.90
7694;DHT22;3889;48.162;11.510;2022-07-23T12:50:54;24.60;99.90
7694;DHT22;3889;48.162;11.510;2022-07-23T12:53:24;24.70;99.90
7694;DHT22;3889;48.162;11.510;2022-07-23T12:55:59;24.80;99.90
7694;DHT22;3889;48.162;11.510;2022-07-23T12:58:49;24.70;99.90
7694;DHT22;3889;48.162;11.510;2022-07-23T13:01:27;24.80;99.90
7694;DHT22;3889;48.162;11.510;2022-07-23T13:04:01;24.70;99.90
7694;DHT22;3889;48.162;11.510;2022-07-23T13:06:41;24.80;99.90
7694;DHT22;3889;48.162;11.510;2022-07-23T13:09:12;24.90;99.90
7694;DHT22;3889;48.162;11.510;2022-07-23T13:12:00;24.80;99.90
7694;DHT22;3889;48.162;11.510;2022-07-23T13:14:31;24.90;99.90
7694;DHT22;3889;48.162;11.510;2022-07-23T13:17:01;24.70;99.90
7694;DHT22;3889;48.162;11.510;2022-07-23T13:19:32;24.70;99.90
7694;DHT22;3889;48.162;11.510;2022-07-23T13:22:01;24.50;99.90
7694;DHT22;3889;48.162;11.510;2022-07-23T13:24:35;24.50;99.90
7694;DHT22;3889;48.162;11.510;2022-07-23T13:27:05;24.50;99.90
7694;DHT22;3889;48.162;11.510;2022-07-23T13:29:37;24.50;99.90
7694;DHT22;3889;48.162;11.510;2022-07-23T13:32:06;24.50;99.90
7694;DHT22;3889;48.162;11.510;2022-07-23T13:34:39;24.50;99.90
7694;DHT22;3889;48.162;11.510;2022-07-23T13:37:08;24.50;99.90
7694;DHT22;3889;48.162;11.510;2022-07-23T13:39:36;24.60;99.90
7694;DHT22;3889;48.162;11.510;2022-07-23T13:42:05;24.80;99.90
7694;DHT22;3889;48.162;11.510;2022-07-23T13:44:34;25.00;99.90
7694;DHT22;3889;48.162;11.510;2022-07-23T13:47:02;25.10;99.90
7694;DHT22;3889;48.162;11.510;2022-07-23T13:49:32;25.20;99.90
7694;DHT22;3889;48.162;11.510;2022-07-23T13:52:03;25.30;99.90
7694;DHT22;3889;48.162;11.510;2022-07-23T13:54:34;25.20;99.90
7694;DHT22;3889;48.162;11.510;2022-07-23T13:57:02;25.00;99.90
7694;DHT22;3889;48.162;11.510;2022-07-23T13:59:31;25.00;99.90
7694;DHT22;3889;48.162;11.510;2022-07-23T14:01:59;24.90;99.90
7694;DHT22;3889;48.162;11.510;2022-07-23T14:04:49;24.80;99.90
7694;DHT22;3889;48.162;11.510;2022-07-23T14:07:17;24.70;99.90
7694;DHT22;3889;48.162;11.510;2022-07-23T14:09:46;24.70;99.90
7694;DHT22;3889;48.162;11.510;2022-07-23T14:12:14;24.60;99.90
7694;DHT22;3889;48.162;11.510;2022-07-23T14:14:43;24.60;99.90
7694;DHT22;3889;48.162;11.510;2022-07-23T14:17:11;24.50;99.90
7694;DHT22;3889;48.162;11.510;2022-07-23T14:19:39;24.40;99.90
7694;DHT22;3889;48.162;11.510;2022-07-23T14:22:09;24.30;99.90
7694;DHT22;3889;48.162;11.510;2022-07-23T14:24:39;24.40;99.90
7694;DHT22;3889;48.162;11.510;2022-07-23T14:27:07;24.20;99.90
7694;DHT22;3889;48.162;11.510;2022-07-23T14:29:35;24.30;99.90
7694;DHT22;3889;48.162;11.510;2022-07-23T14:32:04;24.40;99.90
7694;DHT22;3889;48.162;11.510;2022-07-23T14:34:32;24.70;99.90
7694;DHT22;3889;48.162;11.510;2022-07-23T14:37:03;24.90;99.90
7694;DHT22;3889;48.162;11.510;2022-07-23T14:39:32;25.00;99.90
7694;DHT22;3889;48.162;11.510;2022-07-23T14:42:01;25.10;99.90
7694;DHT22;3889;48.162;11.510;2022-07-23T14:44:28;25.30;99.90
7694;DHT22;3889;48.162;11.510;2022-07-23T14:46:56;25.40;99.90
7694;DHT22;3889;48.162;11.510;2022-07-23T14:49:24;25.50;99.90
7694;DHT22;3889;48.162;11.510;2022-07-23T14:51:53;25.60;99.90
7694;DHT22;3889;48.162;11.510;2022-07-23T14:54:22;25.50;99.90
7694;DHT22;3889;48.162;11.510;2022-07-23T14:56:54;25.70;99.90
7694;DHT22;3889;48.162;11.510;2022-07-23T14:59:23;25.50;99.90
7694;DHT22;3889;48.162;11.510;2022-07-23T15:01:52;25.40;99.90
7694;DHT22;3889;48.162;11.510;2022-07-23T15:04:23;25.40;99.90
7694;DHT22;3889;48.162;11.510;2022-07-23T15:07:06;25.30;99.90
7694;DHT22;3889;48.162;11.510;2022-07-23T15:09:35;25.20;99.90
7694;DHT22;3889;48.162;11.510;2022-07-23T15:12:05;25.10;99.90
7694;DHT22;3889;48.162;11.510;2022-07-23T15:14:38;25.10;99.90
7694;DHT22;3889;48.162;11.510;2022-07-23T15:17:07;25.30;99.90
7694;DHT22;3889;48.162;11.510;2022-07-23T15:19:35;25.40;99.90
7694;DHT22;3889;48.162;11.510;2022-07-23T15:22:03;25.70;99.90
7694;DHT22;3889;48.162;11.510;2022-07-23T15:24:34;25.90;99.90
7694;DHT22;3889;48.162;11.510;2022-07-23T15:27:02;25.90;99.90
7694;DHT22;3889;48.162;11.510;2022-07-23T15:29:31;25.90;99.90
7694;DHT22;3889;48.162;11.510;2022-07-23T15:31:59;25.80;99.90
7694;DHT22;3889;48.162;11.510;2022-07-23T15:34:27;26.00;99.90
7694;DHT22;3889;48.162;11.510;2022-07-23T15:36:55;26.00;99.90
7694;DHT22;3889;48.162;11.510;2022-07-23T15:39:25;26.00;99.90
7694;DHT22;3889;48.162;11.510;2022-07-23T15:41:55;26.00;99.90
7694;DHT22;3889;48.162;11.510;2022-07-23T15:44:24;26.00;99.90
7694;DHT22;3889;48.162;11.510;2022-07-23T15:46:57;26.10;99.90
7694;DHT22;3889;48.162;11.510;2022-07-23T15:49:26;26.10;99.90
7694;DHT22;3889;48.162;11.510;2022-07-23T15:51:54;26.00;99.90
7694;DHT22;3889;48.162;11.510;2022-07-23T15:54:24;26.10;99.90
7694;DHT22;3889;48.162;11.510;2022-07-23T15:56:52;26.10;99.90
7694;DHT22;3889;48.162;11.510;2022-07-23T15:59:21;26.10;99.90
7694;DHT22;3889;48.162;11.510;2022-07-23T16:01:57;26.20;99.90